AirNav   ATP
 
 1494 users online  

0A8 Bibb County Airport
Centreville, Alabama, USA

GOING TO CENTREVILLE?


FAA INFORMATION EFFECTIVE 01 FEBRUARY 2018

Location

FAA Identifier: 0A8
Lat/Long: 32-56-12.9800N / 087-05-25.9700W
32-56.216333N / 087-05.432833W
32.9369389 / -87.0905472
(estimated)
Elevation: 250.9 ft. / 76.5 m (surveyed)
Variation: 02W (2010)
From city: 3 miles E of CENTREVILLE, AL
Time zone: UTC -6 (UTC -5 during Daylight Saving Time)
Zip code: 35042

Airport Operations

Airport use: Open to the public
Activation date: 07/1962
Control tower: no
ARTCC: ATLANTA CENTER
FSS: ANNISTON FLIGHT SERVICE STATION
NOTAMs facility: ANB (NOTAM-D service available)
Attendance: UNATNDD
AIRPORT UNATNDD.
Wind indicator: lighted
Segmented circle: no
Lights: ACTVT MIRL RY 10/28 AND REIL RY 10/28, PAPI RY 10 AND RY 28 - CTAF.
Beacon: white-green (lighted land airport)
Operates sunset to sunrise.

Airport Communications

CTAF/UNICOM: 122.975
  • APCH/DEP SVC PRVDD BY ATLANTA ARTCC ON FREQS 132.25/263.025 (UNIONTOWN RCAG).

Nearby radio navigation aids

VOR radial/distance  VOR name  Freq  Var
OKWr156/19.8BROOKWOOD VORTAC111.0000E
LDKr128/29.6CRIMSON VORTAC117.8003E

Airport Services

Airframe service: NONE
Powerplant service: MINOR
Bottled oxygen: NONE
Bulk oxygen: NONE

Runway Information

Runway 10/28

Dimensions: 4206 x 80 ft. / 1282 x 24 m
Surface: asphalt, in fair condition
Weight bearing capacity: 
Single wheel: 18.0
Runway edge lights: medium intensity
Runway edge markings: RWY MARKINGS FADED.
RUNWAY 10  RUNWAY 28
Latitude: 32-56.246500N32-56.186167N
Longitude: 087-05.842500W087-05.023167W
Elevation: 238.5 ft.250.9 ft.
Gradient: 0.3%0.3%
Traffic pattern: leftleft
Runway heading: 097 magnetic, 095 true277 magnetic, 275 true
Markings: nonprecision, in poor conditionnonprecision, in poor condition
Visual slope indicator: 2-light PAPI on left (4.00 degrees glide path)2-light PAPI on left (4.00 degrees glide path)
Runway end identifier lights: yesyes
Touchdown point: yes, no lightsyes, no lights
Obstructions: 78 ft. tree, 2733 ft. from runway, 51 ft. right of centerline, 32:1 slope to clear15 ft. trees, 413 ft. from runway, 25 ft. left of centerline, 14:1 slope to clear

Airport Ownership and Management from official FAA records

Ownership: Publicly-owned
Owner: BIBB COUNTY COMMISSION
157 SW DAVIDSON DRIVE
CENTREVILLE, AL 35042
Phone (205) 926-3114
Manager: BRYAN MILLER
P.O BOX 308
CENTREVILLE, AL 35042
Phone (205) 225-4763
FOR AIRPORT ACCESS CONTACT 205-225-4763 OR 205-316-8574

Airport Operational Statistics

Aircraft based on the field: 11
Single engine airplanes: 8
Multi engine airplanes: 1
Jet airplanes: 2
    
Aircraft operations: avg 68/week *
78% transient general aviation
22% local general aviation
* for 12-month period ending 15 November 2017

Additional Remarks

PILOT ACCESS VIA WALK THROUGH GATE ON NORTH SIDE OF AIRPORT

Instrument Procedures

NOTE: All procedures below are presented as PDF files. If you need a reader for these files, you should download the free Adobe Reader.

NOT FOR NAVIGATION. Please procure official charts for flight.
FAA instrument procedures published for use between 1 February 2018 at 0901Z and 1 March 2018 at 0900Z.

 
IAPs - Instrument Approach Procedures
RNAV (GPS) RWY 10   download (193KB)
RNAV (GPS) RWY 28   download (187KB)
NOTE: Special Take-Off Minimums/Departure Procedures apply   download (189KB)

Other nearby airports with instrument procedures:

KEET - Shelby County Airport (21 nm NE)
KEKY - Bessemer Airport (24 nm N)
02A - Chilton County Airport (25 nm E)
A08 - Vaiden Field Airport (30 nm SW)
KTCL - Tuscaloosa Regional Airport (31 nm NW)
 
Loc | Ops | Rwys | IFR | FBO | Links
Com | Nav | Svcs | Stats | Notes

AirNav Hotels Sweepstakes
 
Area around 0A8 (Bibb County Airport)
 
Road maps at: MapQuest Bing Google
 
Aerial photo
WARNING: Photo may not be current or correct
Aerial photo of 0A8 (Bibb County Airport)
Do you have a better or more recent aerial photo of Bibb County Airport that you would like to share? If so, please send us your photo.

 
Sectional chart

 
Airport distance calculator
Flying to Bibb County Airport? Find the distance to fly.

From to 0A8

Sunrise and sunset
Times for 19-Feb-2018
 Local
(UTC-6)
 Zulu
(UTC)
Morning civil twilight06:0412:04
Sunrise06:2912:29
Sunset17:3623:36
Evening civil twilight18:0100:01

Current date and time
Zulu (UTC)  19-Feb-2018 21:01:47
Local (UTC-6)  19-Feb-2018 15:01:47
 
METAR
KEET 
21nm NE 
192053Z AUTO 18009KT 10SM SCT070 25/14 A3019 RMK AO2 SLP217 T02500144 56015 $
KEKY 
24nm N 
192056Z AUTO 17007KT 10SM BKN070 24/15 A3019 RMK AO2 SLP237 T02390150 56014
KA08 
30nm SW 
192055Z AUTO 19013G17KT 10SM SCT046 BKN050 OVC070 25/16 A3016 RMK AO2 T02460164
KTCL 
31nm NW 
192053Z 18012KT 10SM FEW050 SCT060 26/17 A3014 RMK AO2 SLP206 T02610167 56022
KSEM 
36nm S 
192055Z AUTO 17010KT 10SM SCT055 OVC070 26/13 A3017 RMK AO2
KBHM 
41nm NE 
192053Z 19016G19KT 10SM SCT055 OVC070 26/13 A3020 RMK AO2 SLP221 T02560133 56017
K1A9 
42nm SE 
192055Z AUTO 17005KT 10SM SCT060 OVC070 26/14 A3018 RMK AO2 T02630135
KSCD 
42nm E 
192055Z AUTO 21008KT 10SM SCT048 OVC070 26/16 A3020 RMK AO2 T02610157
TAF
KEET 
21nm NE 
191913Z 1919/2018 16010G20KT P6SM SCT050 FM200200 16003KT P6SM SCT060 FM201100 14004KT P6SM BKN025
NOTAMs
Click for the latest NOTAMs
NOTAMs are issued by the DoD/FAA and will open in a separate window not controlled by AirNav.

 

 
 

Would you like to see your business listed on this page?

 If your business provides an interesting product or service to pilots, flight crews, aircraft, or users of the Bibb County Airport, you should consider listing it here.  To start the listing process, click on the button below
 
Add a business
 

Other Pages about Bibb County Airport

Update a link
 
Copyright © AirNav, LLC. All rights reserved. Privacy Policy  Contact